sensor_id;sensor_type;location;lat;lon;timestamp;pressure;altitude;pressure_sealevel;temperature;humidity
53522;BME280;39398;48.382;9.802;2023-06-10T00:02:41;93492.75;;;14.76;100.00
53522;BME280;39398;48.382;9.802;2023-06-10T00:07:43;93497.59;;;14.68;100.00
53522;BME280;39398;48.382;9.802;2023-06-10T00:12:46;93492.75;;;14.64;100.00
53522;BME280;39398;48.382;9.802;2023-06-10T00:17:48;93505.25;;;14.46;100.00
53522;BME280;39398;48.382;9.802;2023-06-10T00:22:49;93505.19;;;14.34;100.00
53522;BME280;39398;48.382;9.802;2023-06-10T00:27:52;93500.06;;;14.21;100.00
53522;BME280;39398;48.382;9.802;2023-06-10T00:32:54;93496.34;;;14.22;100.00
53522;BME280;39398;48.382;9.802;2023-06-10T00:37:56;93488.69;;;14.13;100.00
53522;BME280;39398;48.382;9.802;2023-06-10T00:42:59;93487.41;;;14.04;100.00
53522;BME280;39398;48.382;9.802;2023-06-10T00:48:01;93493.56;;;14.16;100.00
53522;BME280;39398;48.382;9.802;2023-06-10T00:53:03;93499.06;;;13.85;100.00
53522;BME280;39398;48.382;9.802;2023-06-10T00:58:06;93490.41;;;13.89;100.00
53522;BME280;39398;48.382;9.802;2023-06-10T01:03:08;93492.91;;;13.84;100.00
53522;BME280;39398;48.382;9.802;2023-06-10T01:08:17;93488.13;;;13.93;100.00
53522;BME280;39398;48.382;9.802;2023-06-10T01:13:22;93486.81;;;14.02;100.00
53522;BME280;39398;48.382;9.802;2023-06-10T01:18:30;93481.88;;;13.87;100.00
53522;BME280;39398;48.382;9.802;2023-06-10T01:23:33;93487.47;;;13.98;100.00
53522;BME280;39398;48.382;9.802;2023-06-10T01:28:40;93485.03;;;13.96;100.00
53522;BME280;39398;48.382;9.802;2023-06-10T01:33:47;93492.72;;;13.86;100.00
53522;BME280;39398;48.382;9.802;2023-06-10T01:38:52;93493.00;;;14.26;100.00
53522;BME280;39398;48.382;9.802;2023-06-10T01:43:55;93494.16;;;14.18;100.00
53522;BME280;39398;48.382;9.802;2023-06-10T01:48:56;93489.38;;;14.09;100.00
53522;BME280;39398;48.382;9.802;2023-06-10T01:53:59;93495.47;;;14.28;100.00
53522;BME280;39398;48.382;9.802;2023-06-10T01:59:01;93493.72;;;14.03;100.00
53522;BME280;39398;48.382;9.802;2023-06-10T02:04:03;93496.38;;;14.03;100.00
53522;BME280;39398;48.382;9.802;2023-06-10T02:09:06;93498.66;;;14.00;100.00
53522;BME280;39398;48.382;9.802;2023-06-10T02:14:07;93503.97;;;14.00;100.00
53522;BME280;39398;48.382;9.802;2023-06-10T02:19:09;93494.75;;;13.65;100.00
53522;BME280;39398;48.382;9.802;2023-06-10T02:24:12;93508.66;;;13.42;100.00
53522;BME280;39398;48.382;9.802;2023-06-10T02:29:14;93512.91;;;13.25;100.00
53522;BME280;39398;48.382;9.802;2023-06-10T02:34:15;93503.97;;;13.19;100.00
53522;BME280;39398;48.382;9.802;2023-06-10T02:39:18;93512.84;;;13.07;100.00
53522;BME280;39398;48.382;9.802;2023-06-10T02:44:20;93503.75;;;13.21;100.00
53522;BME280;39398;48.382;9.802;2023-06-10T02:49:22;93517.16;;;13.01;100.00
53522;BME280;39398;48.382;9.802;2023-06-10T02:54:25;93517.53;;;13.04;100.00
53522;BME280;39398;48.382;9.802;2023-06-10T02:59:27;93513.09;;;12.98;100.00
53522;BME280;39398;48.382;9.802;2023-06-10T03:04:29;93522.66;;;12.74;100.00
53522;BME280;39398;48.382;9.802;2023-06-10T03:09:32;93532.63;;;12.72;100.00
53522;BME280;39398;48.382;9.802;2023-06-10T03:14:33;93523.31;;;12.95;100.00
53522;BME280;39398;48.382;9.802;2023-06-10T03:19:35;93533.28;;;12.68;100.00
53522;BME280;39398;48.382;9.802;2023-06-10T03:24:38;93531.22;;;12.76;100.00
53522;BME280;39398;48.382;9.802;2023-06-10T03:29:40;93537.88;;;12.79;100.00
53522;BME280;39398;48.382;9.802;2023-06-10T03:34:42;93544.28;;;12.71;100.00
53522;BME280;39398;48.382;9.802;2023-06-10T03:39:46;93543.81;;;13.06;100.00
53522;BME280;39398;48.382;9.802;2023-06-10T03:44:47;93546.59;;;13.18;100.00
53522;BME280;39398;48.382;9.802;2023-06-10T03:49:49;93550.44;;;13.22;100.00
53522;BME280;39398;48.382;9.802;2023-06-10T03:54:52;93557.13;;;13.31;100.00
53522;BME280;39398;48.382;9.802;2023-06-10T03:59:54;93563.34;;;13.43;100.00
53522;BME280;39398;48.382;9.802;2023-06-10T04:04:55;93557.09;;;13.56;100.00
53522;BME280;39398;48.382;9.802;2023-06-10T04:09:58;93555.59;;;13.42;100.00
53522;BME280;39398;48.382;9.802;2023-06-10T04:15:00;93561.94;;;13.41;100.00
53522;BME280;39398;48.382;9.802;2023-06-10T04:20:02;93552.00;;;13.55;100.00
53522;BME280;39398;48.382;9.802;2023-06-10T04:25:05;93564.63;;;13.78;100.00
53522;BME280;39398;48.382;9.802;2023-06-10T04:30:08;93569.59;;;13.92;100.00
53522;BME280;39398;48.382;9.802;2023-06-10T04:35:11;93576.59;;;14.05;100.00
53522;BME280;39398;48.382;9.802;2023-06-10T04:40:14;93570.97;;;14.13;100.00
53522;BME280;39398;48.382;9.802;2023-06-10T04:45:16;93576.53;;;14.30;100.00
53522;BME280;39398;48.382;9.802;2023-06-10T04:50:18;93575.53;;;14.43;100.00
53522;BME280;39398;48.382;9.802;2023-06-10T04:55:21;93579.59;;;14.46;100.00
53522;BME280;39398;48.382;9.802;2023-06-10T05:00:22;93574.88;;;14.48;100.00
53522;BME280;39398;48.382;9.802;2023-06-10T05:05:24;93579.03;;;14.74;100.00
53522;BME280;39398;48.382;9.802;2023-06-10T05:10:27;93579.00;;;14.92;100.00
53522;BME280;39398;48.382;9.802;2023-06-10T05:15:29;93582.97;;;15.01;100.00
53522;BME280;39398;48.382;9.802;2023-06-10T05:20:30;93586.50;;;15.25;100.00
53522;BME280;39398;48.382;9.802;2023-06-10T05:25:33;93583.53;;;15.45;100.00
53522;BME280;39398;48.382;9.802;2023-06-10T05:30:35;93587.13;;;15.51;100.00
53522;BME280;39398;48.382;9.802;2023-06-10T05:35:37;93589.75;;;15.39;100.00
53522;BME280;39398;48.382;9.802;2023-06-10T05:40:40;93584.25;;;16.11;100.00
53522;BME280;39398;48.382;9.802;2023-06-10T05:45:41;93592.94;;;16.18;100.00
53522;BME280;39398;48.382;9.802;2023-06-10T05:50:43;93590.94;;;16.37;100.00
53522;BME280;39398;48.382;9.802;2023-06-10T05:55:46;93587.41;;;16.48;100.00
53522;BME280;39398;48.382;9.802;2023-06-10T06:00:48;93590.94;;;16.78;100.00
53522;BME280;39398;48.382;9.802;2023-06-10T06:05:50;93600.28;;;17.20;100.00
53522;BME280;39398;48.382;9.802;2023-06-10T06:10:53;93606.38;;;17.33;100.00
53522;BME280;39398;48.382;9.802;2023-06-10T06:15:54;93604.56;;;17.38;100.00
53522;BME280;39398;48.382;9.802;2023-06-10T06:20:56;93603.47;;;17.68;100.00
53522;BME280;39398;48.382;9.802;2023-06-10T06:25:59;93594.34;;;18.36;100.00
53522;BME280;39398;48.382;9.802;2023-06-10T06:31:01;93592.66;;;18.52;100.00
53522;BME280;39398;48.382;9.802;2023-06-10T06:36:02;93600.56;;;18.42;100.00
53522;BME280;39398;48.382;9.802;2023-06-10T06:41:06;93604.72;;;19.21;100.00
53522;BME280;39398;48.382;9.802;2023-06-10T06:46:07;93603.91;;;19.47;100.00
53522;BME280;39398;48.382;9.802;2023-06-10T06:51:09;93605.03;;;20.69;100.00
53522;BME280;39398;48.382;9.802;2023-06-10T06:56:12;93602.41;;;19.89;100.00
53522;BME280;39398;48.382;9.802;2023-06-10T07:01:14;93607.28;;;20.87;100.00
53522;BME280;39398;48.382;9.802;2023-06-10T07:06:15;93613.63;;;20.71;100.00
53522;BME280;39398;48.382;9.802;2023-06-10T07:11:18;93616.13;;;20.40;100.00
53522;BME280;39398;48.382;9.802;2023-06-10T07:16:20;93607.03;;;20.94;100.00
53522;BME280;39398;48.382;9.802;2023-06-10T07:21:21;93610.38;;;19.84;100.00
53522;BME280;39398;48.382;9.802;2023-06-10T07:26:24;93615.63;;;20.06;100.00
53522;BME280;39398;48.382;9.802;2023-06-10T07:31:26;93612.25;;;20.63;100.00
53522;BME280;39398;48.382;9.802;2023-06-10T07:36:28;93612.56;;;20.24;100.00
53522;BME280;39398;48.382;9.802;2023-06-10T07:41:31;93612.63;;;19.97;100.00
53522;BME280;39398;48.382;9.802;2023-06-10T07:46:32;93614.13;;;20.20;100.00
53522;BME280;39398;48.382;9.802;2023-06-10T07:51:34;93608.25;;;20.65;100.00
53522;BME280;39398;48.382;9.802;2023-06-10T07:56:37;93607.41;;;19.80;100.00
53522;BME280;39398;48.382;9.802;2023-06-10T08:01:39;93617.69;;;20.78;100.00
53522;BME280;39398;48.382;9.802;2023-06-10T08:06:41;93611.88;;;21.02;100.00
53522;BME280;39398;48.382;9.802;2023-06-10T08:11:44;93615.63;;;20.43;100.00
53522;BME280;39398;48.382;9.802;2023-06-10T08:16:47;93598.44;;;20.39;100.00
53522;BME280;39398;48.382;9.802;2023-06-10T08:21:49;93603.16;;;21.42;100.00
53522;BME280;39398;48.382;9.802;2023-06-10T08:26:52;93608.03;;;21.86;100.00
53522;BME280;39398;48.382;9.802;2023-06-10T08:31:55;93599.94;;;22.12;100.00
53522;BME280;39398;48.382;9.802;2023-06-10T08:36:56;93605.88;;;21.93;100.00
53522;BME280;39398;48.382;9.802;2023-06-10T08:42:11;93603.91;;;22.55;100.00
53522;BME280;39398;48.382;9.802;2023-06-10T08:47:18;93607.66;;;23.29;100.00
53522;BME280;39398;48.382;9.802;2023-06-10T08:52:21;93603.44;;;23.13;100.00
53522;BME280;39398;48.382;9.802;2023-06-10T08:57:24;93603.69;;;22.41;100.00
53522;BME280;39398;48.382;9.802;2023-06-10T09:02:27;93612.56;;;23.66;96.68
53522;BME280;39398;48.382;9.802;2023-06-10T09:07:30;93605.56;;;23.21;93.00
53522;BME280;39398;48.382;9.802;2023-06-10T09:12:33;93602.84;;;24.10;100.00
53522;BME280;39398;48.382;9.802;2023-06-10T09:17:35;93600.38;;;22.75;100.00
53522;BME280;39398;48.382;9.802;2023-06-10T09:22:37;93615.81;;;21.93;100.00
53522;BME280;39398;48.382;9.802;2023-06-10T09:27:47;93606.38;;;23.16;99.04
53522;BME280;39398;48.382;9.802;2023-06-10T09:32:49;93611.50;;;21.61;100.00
53522;BME280;39398;48.382;9.802;2023-06-10T09:37:51;93604.88;;;23.44;100.00
53522;BME280;39398;48.382;9.802;2023-06-10T09:42:55;93599.94;;;23.62;95.97
53522;BME280;39398;48.382;9.802;2023-06-10T09:47:58;93615.25;;;21.60;100.00
53522;BME280;39398;48.382;9.802;2023-06-10T09:53:00;93607.47;;;22.30;100.00
53522;BME280;39398;48.382;9.802;2023-06-10T09:58:03;93615.28;;;21.70;100.00
53522;BME280;39398;48.382;9.802;2023-06-10T10:03:05;93618.50;;;22.03;100.00
53522;BME280;39398;48.382;9.802;2023-06-10T10:08:07;93618.75;;;22.27;100.00
53522;BME280;39398;48.382;9.802;2023-06-10T10:13:10;93623.75;;;23.89;93.57
53522;BME280;39398;48.382;9.802;2023-06-10T10:18:14;93620.19;;;24.28;90.73
53522;BME280;39398;48.382;9.802;2023-06-10T10:23:21;93613.19;;;23.58;97.68
53522;BME280;39398;48.382;9.802;2023-06-10T10:28:29;93615.34;;;23.96;88.79
53522;BME280;39398;48.382;9.802;2023-06-10T10:33:40;93618.91;;;24.20;92.32
53522;BME280;39398;48.382;9.802;2023-06-10T10:38:45;93605.25;;;22.52;100.00
53522;BME280;39398;48.382;9.802;2023-06-10T10:43:54;93608.00;;;21.55;100.00
53522;BME280;39398;48.382;9.802;2023-06-10T10:48:57;93601.59;;;23.08;100.00
53522;BME280;39398;48.382;9.802;2023-06-10T10:54:12;93604.25;;;23.58;100.00
53522;BME280;39398;48.382;9.802;2023-06-10T10:59:15;93597.78;;;24.32;84.98
53522;BME280;39398;48.382;9.802;2023-06-10T11:04:18;93601.38;;;24.76;84.54
53522;BME280;39398;48.382;9.802;2023-06-10T11:09:26;93594.72;;;24.44;76.52
53522;BME280;39398;48.382;9.802;2023-06-10T11:14:30;93598.03;;;24.31;82.19
53522;BME280;39398;48.382;9.802;2023-06-10T11:19:33;93599.72;;;24.80;80.71
53522;BME280;39398;48.382;9.802;2023-06-10T11:24:35;93594.31;;;23.58;84.99
53522;BME280;39398;48.382;9.802;2023-06-10T11:29:38;93608.94;;;22.97;96.48
53522;BME280;39398;48.382;9.802;2023-06-10T11:34:40;93596.38;;;23.27;85.11
53522;BME280;39398;48.382;9.802;2023-06-10T11:39:42;93594.91;;;23.45;92.29
53522;BME280;39398;48.382;9.802;2023-06-10T11:44:49;93597.28;;;23.96;80.23
53522;BME280;39398;48.382;9.802;2023-06-10T11:49:56;93589.91;;;23.78;81.13
53522;BME280;39398;48.382;9.802;2023-06-10T11:54:58;93586.69;;;23.71;79.49
53522;BME280;39398;48.382;9.802;2023-06-10T12:00:05;93586.53;;;23.91;89.06
53522;BME280;39398;48.382;9.802;2023-06-10T12:05:11;93586.47;;;23.62;79.50
53522;BME280;39398;48.382;9.802;2023-06-10T12:10:13;93574.88;;;24.01;81.89
53522;BME280;39398;48.382;9.802;2023-06-10T12:15:29;93585.84;;;24.39;82.95
53522;BME280;39398;48.382;9.802;2023-06-10T12:20:32;93573.31;;;24.53;81.09
53522;BME280;39398;48.382;9.802;2023-06-10T12:25:34;93571.69;;;24.52;81.02
53522;BME280;39398;48.382;9.802;2023-06-10T12:30:37;93574.09;;;24.53;77.06
53522;BME280;39398;48.382;9.802;2023-06-10T12:35:47;93565.97;;;24.29;78.46
53522;BME280;39398;48.382;9.802;2023-06-10T12:40:49;93572.25;;;24.73;78.92
53522;BME280;39398;48.382;9.802;2023-06-10T12:45:52;93568.88;;;24.86;80.66
53522;BME280;39398;48.382;9.802;2023-06-10T12:50:56;93561.03;;;25.09;79.54
53522;BME280;39398;48.382;9.802;2023-06-10T12:55:58;93560.84;;;24.81;82.55
53522;BME280;39398;48.382;9.802;2023-06-10T13:01:01;93558.41;;;24.31;82.26
53522;BME280;39398;48.382;9.802;2023-06-10T13:06:02;93550.59;;;25.02;77.76
53522;BME280;39398;48.382;9.802;2023-06-10T13:11:04;93546.00;;;25.02;77.33
53522;BME280;39398;48.382;9.802;2023-06-10T13:16:07;93553.25;;;25.45;75.38
53522;BME280;39398;48.382;9.802;2023-06-10T13:21:09;93547.28;;;24.62;79.81
53522;BME280;39398;48.382;9.802;2023-06-10T13:26:10;93555.53;;;24.95;78.91
53522;BME280;39398;48.382;9.802;2023-06-10T13:31:13;93546.41;;;25.34;82.85
53522;BME280;39398;48.382;9.802;2023-06-10T13:36:15;93553.72;;;23.44;93.40
53522;BME280;39398;48.382;9.802;2023-06-10T13:41:17;93558.22;;;23.54;93.85
53522;BME280;39398;48.382;9.802;2023-06-10T13:46:20;93552.03;;;24.22;84.19
53522;BME280;39398;48.382;9.802;2023-06-10T13:51:21;93550.34;;;22.69;92.03
53522;BME280;39398;48.382;9.802;2023-06-10T13:56:23;93549.19;;;21.79;100.00
53522;BME280;39398;48.382;9.802;2023-06-10T14:01:26;93543.13;;;22.49;100.00
53522;BME280;39398;48.382;9.802;2023-06-10T14:06:28;93545.72;;;22.80;95.53
53522;BME280;39398;48.382;9.802;2023-06-10T14:11:30;93534.63;;;22.21;98.54
53522;BME280;39398;48.382;9.802;2023-06-10T14:16:36;93537.75;;;22.49;100.00
53522;BME280;39398;48.382;9.802;2023-06-10T14:21:42;93534.41;;;23.32;100.00
53522;BME280;39398;48.382;9.802;2023-06-10T14:26:43;93526.84;;;23.34;100.00
53522;BME280;39398;48.382;9.802;2023-06-10T14:31:46;93535.91;;;23.09;96.28
53522;BME280;39398;48.382;9.802;2023-06-10T14:36:48;93526.19;;;24.16;88.51
53522;BME280;39398;48.382;9.802;2023-06-10T14:41:50;93525.00;;;23.64;89.88
53522;BME280;39398;48.382;9.802;2023-06-10T14:46:53;93518.34;;;23.56;95.00
53522;BME280;39398;48.382;9.802;2023-06-10T14:51:54;93516.00;;;24.08;81.87
53522;BME280;39398;48.382;9.802;2023-06-10T14:56:56;93519.88;;;23.67;96.28
53522;BME280;39398;48.382;9.802;2023-06-10T15:01:59;93524.63;;;23.41;94.01
53522;BME280;39398;48.382;9.802;2023-06-10T15:07:01;93524.25;;;23.19;89.54
53522;BME280;39398;48.382;9.802;2023-06-10T15:12:03;93517.69;;;24.04;92.82
53522;BME280;39398;48.382;9.802;2023-06-10T15:17:06;93521.84;;;23.91;92.60
53522;BME280;39398;48.382;9.802;2023-06-10T15:22:07;93518.41;;;24.39;83.78
53522;BME280;39398;48.382;9.802;2023-06-10T15:27:09;93518.56;;;24.23;86.98
53522;BME280;39398;48.382;9.802;2023-06-10T15:32:12;93518.91;;;23.53;90.06
53522;BME280;39398;48.382;9.802;2023-06-10T15:37:19;93518.16;;;23.82;83.36
53522;BME280;39398;48.382;9.802;2023-06-10T15:42:21;93509.94;;;23.97;81.74
53522;BME280;39398;48.382;9.802;2023-06-10T15:47:24;93510.88;;;24.35;84.83
53522;BME280;39398;48.382;9.802;2023-06-10T15:52:26;93520.03;;;24.64;89.58
53522;BME280;39398;48.382;9.802;2023-06-10T15:57:27;93511.38;;;24.37;87.73
53522;BME280;39398;48.382;9.802;2023-06-10T16:02:30;93507.84;;;23.55;87.90
53522;BME280;39398;48.382;9.802;2023-06-10T16:07:37;93512.41;;;24.18;81.92
53522;BME280;39398;48.382;9.802;2023-06-10T16:12:38;93513.94;;;23.31;87.27
53522;BME280;39398;48.382;9.802;2023-06-10T16:17:42;93504.91;;;23.85;81.75
53522;BME280;39398;48.382;9.802;2023-06-10T16:22:43;93502.84;;;24.06;83.90
53522;BME280;39398;48.382;9.802;2023-06-10T16:27:45;93504.78;;;24.01;82.58
53522;BME280;39398;48.382;9.802;2023-06-10T16:32:48;93504.31;;;23.94;76.80
53522;BME280;39398;48.382;9.802;2023-06-10T16:37:50;93519.06;;;23.67;83.28
53522;BME280;39398;48.382;9.802;2023-06-10T16:42:51;93513.44;;;23.98;78.92
53522;BME280;39398;48.382;9.802;2023-06-10T16:47:54;93512.84;;;24.01;78.93
53522;BME280;39398;48.382;9.802;2023-06-10T16:52:56;93513.69;;;24.25;82.61
53522;BME280;39398;48.382;9.802;2023-06-10T16:57:57;93504.16;;;23.06;83.53
53522;BME280;39398;48.382;9.802;2023-06-10T17:03:01;93523.00;;;23.46;79.32
53522;BME280;39398;48.382;9.802;2023-06-10T17:08:02;93531.19;;;23.30;83.35
53522;BME280;39398;48.382;9.802;2023-06-10T17:13:04;93542.63;;;23.51;80.49
53522;BME280;39398;48.382;9.802;2023-06-10T17:18:07;93544.47;;;23.56;80.43
53522;BME280;39398;48.382;9.802;2023-06-10T17:23:09;93547.94;;;23.22;82.41
53522;BME280;39398;48.382;9.802;2023-06-10T17:28:11;93551.00;;;23.10;81.86
53522;BME280;39398;48.382;9.802;2023-06-10T17:33:14;93554.03;;;23.38;80.31
53522;BME280;39398;48.382;9.802;2023-06-10T17:38:16;93560.69;;;23.51;81.53
53522;BME280;39398;48.382;9.802;2023-06-10T17:43:17;93559.47;;;23.33;82.21
53522;BME280;39398;48.382;9.802;2023-06-10T17:48:21;93568.44;;;23.18;86.22
53522;BME280;39398;48.382;9.802;2023-06-10T17:53:22;93559.88;;;23.06;86.93
53522;BME280;39398;48.382;9.802;2023-06-10T17:58:24;93562.09;;;22.93;89.33
53522;BME280;39398;48.382;9.802;2023-06-10T18:03:27;93571.03;;;22.68;89.77
53522;BME280;39398;48.382;9.802;2023-06-10T18:08:29;93567.78;;;22.77;88.87
53522;BME280;39398;48.382;9.802;2023-06-10T18:13:31;93567.59;;;22.63;90.79
53522;BME280;39398;48.382;9.802;2023-06-10T18:18:34;93568.69;;;22.57;93.44
53522;BME280;39398;48.382;9.802;2023-06-10T18:23:36;93580.44;;;22.76;91.66
53522;BME280;39398;48.382;9.802;2023-06-10T18:28:37;93581.28;;;22.66;87.84
53522;BME280;39398;48.382;9.802;2023-06-10T18:33:40;93579.94;;;22.64;87.96
53522;BME280;39398;48.382;9.802;2023-06-10T18:38:42;93601.28;;;22.29;92.73
53522;BME280;39398;48.382;9.802;2023-06-10T18:43:44;93599.41;;;22.20;93.27
53522;BME280;39398;48.382;9.802;2023-06-10T18:48:47;93594.16;;;22.85;89.46
53522;BME280;39398;48.382;9.802;2023-06-10T18:53:48;93598.63;;;22.19;95.48
53522;BME280;39398;48.382;9.802;2023-06-10T18:58:50;93602.63;;;21.61;97.86
53522;BME280;39398;48.382;9.802;2023-06-10T19:03:53;93618.75;;;21.61;95.37
53522;BME280;39398;48.382;9.802;2023-06-10T19:08:55;93619.56;;;21.92;92.73
53522;BME280;39398;48.382;9.802;2023-06-10T19:13:56;93618.75;;;21.76;91.68
53522;BME280;39398;48.382;9.802;2023-06-10T19:18:59;93619.78;;;21.39;95.40
53522;BME280;39398;48.382;9.802;2023-06-10T19:24:01;93628.94;;;21.38;95.73
53522;BME280;39398;48.382;9.802;2023-06-10T19:29:03;93637.13;;;21.11;96.87
53522;BME280;39398;48.382;9.802;2023-06-10T19:34:06;93640.50;;;20.86;99.29
53522;BME280;39398;48.382;9.802;2023-06-10T19:39:08;93644.53;;;20.78;100.00
53522;BME280;39398;48.382;9.802;2023-06-10T19:44:10;93658.41;;;20.70;100.00
53522;BME280;39398;48.382;9.802;2023-06-10T19:49:13;93664.28;;;20.25;100.00
53522;BME280;39398;48.382;9.802;2023-06-10T19:54:15;93667.84;;;20.03;100.00
53522;BME280;39398;48.382;9.802;2023-06-10T19:59:16;93666.88;;;19.55;100.00
53522;BME280;39398;48.382;9.802;2023-06-10T20:04:20;93670.81;;;19.47;100.00
53522;BME280;39398;48.382;9.802;2023-06-10T20:09:21;93680.38;;;19.16;100.00
53522;BME280;39398;48.382;9.802;2023-06-10T20:14:23;93681.50;;;18.98;100.00
53522;BME280;39398;48.382;9.802;2023-06-10T20:19:26;93676.16;;;18.98;100.00
53522;BME280;39398;48.382;9.802;2023-06-10T20:24:28;93683.69;;;19.01;100.00
53522;BME280;39398;48.382;9.802;2023-06-10T20:29:29;93678.09;;;18.81;100.00
53522;BME280;39398;48.382;9.802;2023-06-10T20:34:32;93685.63;;;19.06;100.00
53522;BME280;39398;48.382;9.802;2023-06-10T20:39:35;93702.91;;;18.76;100.00
53522;BME280;39398;48.382;9.802;2023-06-10T20:44:37;93703.41;;;18.73;100.00
53522;BME280;39398;48.382;9.802;2023-06-10T20:49:40;93716.88;;;18.45;100.00
53522;BME280;39398;48.382;9.802;2023-06-10T20:54:41;93718.66;;;18.39;100.00
53522;BME280;39398;48.382;9.802;2023-06-10T20:59:43;93721.72;;;18.48;100.00
53522;BME280;39398;48.382;9.802;2023-06-10T21:04:46;93722.19;;;18.28;100.00
53522;BME280;39398;48.382;9.802;2023-06-10T21:09:48;93722.69;;;18.08;100.00
53522;BME280;39398;48.382;9.802;2023-06-10T21:14:49;93731.34;;;17.53;100.00
53522;BME280;39398;48.382;9.802;2023-06-10T21:19:53;93741.69;;;17.49;100.00
53522;BME280;39398;48.382;9.802;2023-06-10T21:24:54;93728.84;;;17.63;100.00
53522;BME280;39398;48.382;9.802;2023-06-10T21:29:56;93731.22;;;17.76;100.00
53522;BME280;39398;48.382;9.802;2023-06-10T21:34:59;93729.16;;;17.78;100.00
53522;BME280;39398;48.382;9.802;2023-06-10T21:40:01;93725.25;;;17.57;100.00
53522;BME280;39398;48.382;9.802;2023-06-10T21:45:04;93735.63;;;17.71;100.00
53522;BME280;39398;48.382;9.802;2023-06-10T21:50:07;93726.94;;;17.47;100.00
53522;BME280;39398;48.382;9.802;2023-06-10T21:55:09;93725.59;;;17.61;100.00
53522;BME280;39398;48.382;9.802;2023-06-10T22:00:13;93735.31;;;17.38;100.00
53522;BME280;39398;48.382;9.802;2023-06-10T22:05:17;93741.38;;;17.62;100.00
53522;BME280;39398;48.382;9.802;2023-06-10T22:10:18;93743.97;;;17.86;100.00
53522;BME280;39398;48.382;9.802;2023-06-10T22:15:20;93740.88;;;17.77;100.00
53522;BME280;39398;48.382;9.802;2023-06-10T22:20:23;93742.56;;;17.83;100.00
53522;BME280;39398;48.382;9.802;2023-06-10T22:25:25;93732.72;;;17.84;100.00
53522;BME280;39398;48.382;9.802;2023-06-10T22:30:27;93737.50;;;17.82;100.00
53522;BME280;39398;48.382;9.802;2023-06-10T22:35:29;93726.56;;;17.83;100.00
53522;BME280;39398;48.382;9.802;2023-06-10T22:40:31;93722.94;;;17.32;100.00
53522;BME280;39398;48.382;9.802;2023-06-10T22:45:33;93725.03;;;17.30;100.00
53522;BME280;39398;48.382;9.802;2023-06-10T22:50:36;93716.44;;;16.88;100.00
53522;BME280;39398;48.382;9.802;2023-06-10T22:55:37;93722.97;;;16.80;100.00
53522;BME280;39398;48.382;9.802;2023-06-10T23:00:39;93714.69;;;16.93;100.00
53522;BME280;39398;48.382;9.802;2023-06-10T23:05:42;93721.31;;;16.56;100.00
53522;BME280;39398;48.382;9.802;2023-06-10T23:10:44;93724.59;;;16.34;100.00
53522;BME280;39398;48.382;9.802;2023-06-10T23:15:46;93730.22;;;16.14;100.00
53522;BME280;39398;48.382;9.802;2023-06-10T23:20:49;93726.22;;;16.35;100.00
53522;BME280;39398;48.382;9.802;2023-06-10T23:25:51;93731.31;;;16.25;100.00
53522;BME280;39398;48.382;9.802;2023-06-10T23:30:53;93727.81;;;16.13;100.00
53522;BME280;39398;48.382;9.802;2023-06-10T23:35:56;93728.00;;;15.88;100.00
53522;BME280;39398;48.382;9.802;2023-06-10T23:40:58;93737.34;;;15.67;100.00
53522;BME280;39398;48.382;9.802;2023-06-10T23:45:59;93736.66;;;15.53;100.00
53522;BME280;39398;48.382;9.802;2023-06-10T23:51:03;93736.06;;;15.69;100.00
53522;BME280;39398;48.382;9.802;2023-06-10T23:56:05;93749.16;;;15.52;100.00
